createdAt,value
2022-08-05T00:00:19.605Z,60.61
2022-08-05T00:03:07.790Z,60.97
2022-08-05T00:06:06.540Z,60.96
2022-08-05T00:08:36.254Z,61.17
2022-08-05T00:11:20.709Z,61.36
2022-08-05T00:13:56.511Z,61.51
2022-08-05T00:16:36.571Z,61.54
2022-08-05T00:19:13.441Z,61.45
2022-08-05T00:21:42.580Z,61.89
2022-08-05T00:24:11.380Z,61.96
2022-08-05T00:26:51.954Z,62.07
2022-08-05T00:29:22.559Z,62.46
2022-08-05T00:32:10.576Z,62.55
2022-08-05T00:35:04.760Z,62.75
2022-08-05T00:37:35.770Z,62.79
2022-08-05T00:40:27.362Z,62.83
2022-08-05T00:42:58.806Z,62.99
2022-08-05T00:45:37.899Z,63.12
2022-08-05T00:48:09.355Z,62.97
2022-08-05T00:50:44.364Z,63.09
2022-08-05T00:54:00.302Z,63.36
2022-08-05T00:56:05.734Z,63.37
2022-08-05T00:58:38.535Z,63.28
2022-08-05T01:01:12.360Z,63.72
2022-08-05T01:03:42.149Z,63.69
2022-08-05T01:06:15.286Z,63.77
2022-08-05T01:08:47.119Z,63.48
2022-08-05T01:11:22.348Z,63.68
2022-08-05T01:14:08.777Z,63.89
2022-08-05T01:16:52.403Z,63.88
2022-08-05T01:20:02.341Z,64.04
2022-08-05T01:22:39.551Z,64.16
2022-08-05T01:25:39.656Z,64.52
2022-08-05T01:28:22.425Z,64.33
2022-08-05T01:30:56.031Z,64.55
2022-08-05T01:33:35.589Z,64.90
2022-08-05T01:36:12.695Z,64.70
2022-08-05T01:38:48.314Z,65.20
2022-08-05T01:41:21.763Z,65.15
2022-08-05T01:43:55.178Z,65.32
2022-08-05T01:46:43.092Z,65.08
2022-08-05T01:49:23.420Z,64.96
2022-08-05T01:52:02.213Z,65.20
2022-08-05T01:54:51.949Z,65.60
2022-08-05T01:58:12.657Z,65.36
2022-08-05T02:00:16.390Z,65.25
2022-08-05T02:02:54.949Z,65.54
2022-08-05T02:05:30.964Z,65.37
2022-08-05T02:08:03.657Z,65.33
2022-08-05T02:10:39.016Z,65.53
2022-08-05T02:13:16.061Z,65.67
2022-08-05T02:15:59.119Z,65.79
2022-08-05T02:18:37.133Z,65.86
2022-08-05T02:21:16.245Z,66.06
2022-08-05T02:23:48.508Z,66.14
2022-08-05T02:26:27.119Z,66.10
2022-08-05T02:28:58.257Z,66.18
2022-08-05T02:31:34.783Z,66.24
2022-08-05T02:34:09.208Z,66.36
2022-08-05T02:36:43.994Z,66.43
2022-08-05T02:39:21.359Z,66.55
2022-08-05T02:41:57.821Z,66.81
2022-08-05T02:44:32.178Z,67.11
2022-08-05T02:47:02.601Z,66.92
2022-08-05T02:49:36.577Z,67.06
2022-08-05T02:52:11.508Z,67.33
2022-08-05T02:54:50.659Z,67.28
2022-08-05T02:58:12.112Z,67.26
2022-08-05T03:00:14.646Z,67.54
2022-08-05T03:02:45.197Z,67.30
2022-08-05T03:05:15.338Z,67.51
2022-08-05T03:08:01.155Z,67.75
2022-08-05T03:10:34.422Z,67.90
2022-08-05T03:13:10.859Z,67.97
2022-08-05T03:15:47.479Z,67.92
2022-08-05T03:18:17.436Z,67.93
2022-08-05T03:20:48.966Z,68.20
2022-08-05T03:23:18.944Z,68.11
2022-08-05T03:26:30.088Z,68.25
2022-08-05T03:28:41.503Z,68.40
2022-08-05T03:31:10.852Z,68.52
2022-08-05T03:33:52.911Z,68.39
2022-08-05T03:36:30.070Z,68.56
2022-08-05T03:39:05.530Z,68.58
2022-08-05T03:41:45.232Z,68.87
2022-08-05T03:44:19.845Z,68.83
2022-08-05T03:46:48.629Z,69.20
2022-08-05T03:49:17.383Z,69.22
2022-08-05T03:52:50.547Z,69.39
2022-08-05T03:56:03.748Z,69.54
2022-08-05T03:57:44.520Z,69.98
2022-08-05T04:00:16.486Z,69.79
2022-08-05T04:02:58.120Z,70.02
2022-08-05T04:05:33.942Z,70.05
2022-08-05T04:08:29.640Z,70.21
2022-08-05T04:10:55.353Z,70.00
2022-08-05T04:13:24.440Z,69.94
2022-08-05T04:16:04.167Z,70.01
2022-08-05T04:18:34.483Z,69.98
2022-08-05T04:21:05.258Z,69.85
2022-08-05T04:23:57.106Z,69.70
2022-08-05T04:26:24.571Z,69.54
2022-08-05T04:28:53.238Z,69.59
2022-08-05T04:31:22.226Z,69.55
2022-08-05T04:34:31.960Z,69.40
2022-08-05T04:36:46.324Z,69.10
2022-08-05T04:39:18.497Z,68.99
2022-08-05T04:41:48.277Z,69.00
2022-08-05T04:44:21.450Z,68.91
2022-08-05T04:46:58.503Z,68.78
2022-08-05T04:49:38.465Z,68.78
2022-08-05T04:52:16.563Z,68.40
2022-08-05T04:54:44.995Z,68.35
2022-08-05T04:57:13.377Z,68.16
2022-08-05T04:59:41.729Z,68.09
2022-08-05T05:02:36.679Z,67.98
2022-08-05T05:05:01.713Z,68.01
2022-08-05T05:07:32.709Z,68.04
2022-08-05T05:10:06.347Z,67.97
2022-08-05T05:12:36.742Z,67.94
2022-08-05T05:15:10.722Z,67.75
2022-08-05T05:17:57.037Z,67.77
2022-08-05T05:20:28.826Z,67.71
2022-08-05T05:22:58.359Z,67.65
2022-08-05T05:25:40.568Z,67.60
2022-08-05T05:28:10.428Z,67.75
2022-08-05T05:30:41.619Z,67.54
2022-08-05T05:33:17.082Z,67.60
2022-08-05T05:35:46.582Z,67.45
2022-08-05T05:38:22.231Z,67.75
2022-08-05T05:40:56.907Z,67.47
2022-08-05T05:48:07.140Z,67.11
2022-08-05T05:50:31.235Z,66.63
2022-08-05T05:53:02.552Z,66.53
2022-08-05T05:55:52.264Z,66.27
2022-08-05T05:58:31.403Z,66.04
2022-08-05T06:01:12.320Z,65.79
2022-08-05T06:04:00.400Z,65.70
2022-08-05T06:06:31.075Z,65.57
2022-08-05T06:09:03.994Z,65.89
2022-08-05T06:11:35.286Z,65.57
2022-08-05T06:14:07.924Z,64.76
2022-08-05T06:16:38.468Z,64.28
2022-08-05T06:19:07.417Z,64.03
2022-08-05T06:21:38.869Z,63.67
2022-08-05T06:24:12.853Z,63.78
2022-08-05T06:26:51.801Z,63.59
2022-08-05T06:29:25.063Z,63.38
2022-08-05T06:32:25.585Z,63.17
2022-08-05T06:36:06.822Z,63.14
2022-08-05T06:39:18.837Z,62.92
2022-08-05T06:41:51.022Z,62.72
2022-08-05T06:49:21.289Z,62.99
2022-08-05T06:52:36.952Z,62.53
2022-08-05T07:31:17.445Z,57.90
2022-08-05T08:00:25.047Z,54.91
2022-08-05T09:11:07.768Z,47.43
2022-08-05T09:14:09.517Z,46.82
2022-08-05T09:16:32.819Z,46.42
2022-08-05T09:19:06.706Z,46.61
2022-08-05T09:22:18.377Z,46.24
2022-08-05T09:24:31.772Z,46.04
2022-08-05T09:27:08.481Z,45.96
2022-08-05T09:29:47.980Z,45.65
2022-08-05T09:32:46.012Z,45.79
2022-08-05T09:35:26.808Z,45.36
2022-08-05T09:38:16.459Z,44.74
2022-08-05T09:40:53.750Z,45.09
2022-08-05T09:43:41.614Z,44.97
2022-08-05T09:46:28.825Z,44.88
2022-08-05T09:49:19.621Z,44.18
2022-08-05T09:51:51.846Z,43.84
2022-08-05T09:54:32.360Z,44.01
2022-08-05T09:57:04.269Z,43.96
2022-08-05T09:59:58.122Z,44.33
2022-08-05T10:02:39.459Z,44.16
2022-08-05T10:05:15.410Z,44.28
2022-08-05T10:08:34.653Z,44.49
2022-08-05T10:10:54.354Z,43.51
2022-08-05T10:13:47.792Z,42.18
2022-08-05T10:16:37.754Z,43.07
2022-08-05T10:19:14.782Z,43.27
2022-08-05T10:21:50.143Z,42.92
2022-08-05T10:24:24.958Z,42.46
2022-08-05T10:27:01.232Z,43.31
2022-08-05T10:30:06.719Z,42.57
2022-08-05T10:32:54.429Z,42.61
2022-08-05T10:35:24.062Z,41.94
2022-08-05T10:38:13.985Z,41.37
2022-08-05T10:40:58.009Z,41.37
2022-08-05T10:43:41.414Z,41.64
2022-08-05T10:46:17.716Z,41.75
2022-08-05T10:48:56.967Z,41.18
2022-08-05T10:51:57.510Z,40.61
2022-08-05T10:54:56.076Z,40.79
2022-08-05T10:57:33.885Z,40.98
2022-08-05T11:00:18.736Z,40.99
2022-08-05T11:03:24.924Z,40.85
2022-08-05T11:06:16.234Z,41.01
2022-08-05T11:09:16.607Z,40.49
2022-08-05T11:11:53.653Z,40.21
2022-08-05T11:14:57.502Z,40.51
2022-08-05T11:18:00.151Z,41.00
2022-08-05T11:20:39.188Z,41.03
2022-08-05T11:23:33.626Z,40.55
2022-08-05T11:26:28.484Z,40.46
2022-08-05T11:29:13.345Z,40.59
2022-08-05T11:31:57.405Z,40.54
2022-08-05T11:34:52.215Z,40.50
2022-08-05T11:38:29.052Z,40.34
2022-08-05T11:41:15.457Z,39.75
2022-08-05T11:44:06.418Z,39.37
2022-08-05T11:47:09.271Z,38.68
2022-08-05T11:49:35.328Z,38.87
2022-08-05T11:52:08.643Z,39.47
2022-08-05T11:54:48.557Z,39.73
2022-08-05T11:58:08.260Z,39.76
2022-08-05T12:00:30.624Z,39.95
2022-08-05T12:03:28.859Z,39.72
2022-08-05T12:06:10.020Z,39.32
2022-08-05T12:08:50.956Z,37.92
2022-08-05T12:11:24.877Z,37.91
2022-08-05T12:14:04.385Z,38.00
2022-08-05T12:16:38.505Z,37.98
2022-08-05T12:20:26.092Z,38.14
2022-08-05T12:22:09.731Z,38.53
2022-08-05T12:24:49.462Z,38.57
2022-08-05T12:27:26.605Z,37.94
2022-08-05T12:30:07.880Z,37.87
2022-08-05T12:32:50.778Z,37.71
2022-08-05T12:35:37.238Z,37.66
2022-08-05T12:38:12.194Z,37.46
2022-08-05T12:40:47.262Z,37.50
2022-08-05T12:43:22.297Z,37.58
2022-08-05T12:45:57.113Z,38.04
2022-08-05T12:48:32.905Z,38.30
2022-08-05T12:52:10.178Z,37.87
2022-08-05T12:54:14.687Z,38.40
2022-08-05T12:56:54.035Z,37.99
2022-08-05T12:59:46.936Z,37.80
2022-08-05T13:02:27.303Z,37.67
2022-08-05T13:05:07.006Z,37.83
2022-08-05T13:08:00.377Z,37.70
2022-08-05T13:10:34.325Z,37.47
2022-08-05T13:13:09.030Z,37.56
2022-08-05T13:15:50.892Z,37.66
2022-08-05T13:18:24.042Z,37.49
2022-08-05T13:20:56.229Z,37.29
2022-08-05T13:23:28.120Z,36.76
2022-08-05T13:26:03.782Z,36.79
2022-08-05T13:28:35.640Z,36.88
2022-08-05T13:31:15.943Z,37.17
2022-08-05T13:34:22.397Z,36.41
2022-08-05T13:36:44.035Z,36.45
2022-08-05T13:40:13.041Z,36.10
2022-08-05T13:42:15.122Z,35.90
2022-08-05T13:44:47.706Z,35.92
2022-08-05T13:47:28.085Z,35.92
2022-08-05T13:50:14.830Z,36.33
2022-08-05T13:52:50.058Z,36.60
2022-08-05T13:55:41.474Z,36.27
2022-08-05T13:58:30.176Z,36.53
2022-08-05T14:01:03.057Z,36.63
2022-08-05T14:03:35.881Z,36.77
2022-08-05T14:06:26.611Z,37.38
2022-08-05T14:08:59.458Z,37.34
2022-08-05T14:11:32.008Z,37.42
2022-08-05T14:14:26.084Z,37.44
2022-08-05T14:17:05.483Z,36.99
2022-08-05T14:19:54.391Z,36.81
2022-08-05T14:22:30.290Z,36.78
2022-08-05T14:25:30.079Z,37.06
2022-08-05T14:28:31.359Z,36.69
2022-08-05T14:31:03.373Z,36.50
2022-08-05T14:35:14.394Z,36.86
2022-08-05T14:37:57.869Z,36.83
2022-08-05T14:42:20.937Z,37.14
2022-08-05T14:59:21.850Z,36.91
2022-08-05T15:02:42.835Z,36.80
2022-08-05T15:05:18.629Z,36.37
2022-08-05T15:08:06.200Z,36.45
2022-08-05T15:10:43.521Z,36.30
2022-08-05T15:13:51.441Z,36.78
2022-08-05T15:16:24.841Z,36.29
2022-08-05T15:18:58.505Z,36.59
2022-08-05T15:21:32.816Z,36.82
2022-08-05T15:24:08.325Z,37.04
2022-08-05T15:26:41.379Z,37.95
2022-08-05T15:29:24.142Z,37.84
2022-08-05T15:34:18.506Z,37.63
2022-08-05T15:36:51.074Z,38.02
2022-08-05T15:40:59.098Z,38.20
2022-08-05T15:42:54.680Z,37.71
2022-08-05T15:45:11.397Z,37.84
2022-08-05T15:47:46.027Z,38.10
2022-08-05T15:50:18.965Z,38.53
2022-08-05T15:53:01.837Z,38.36
2022-08-05T16:54:44.361Z,37.92
2022-08-05T16:57:22.074Z,38.09
2022-08-05T17:00:34.639Z,38.38
2022-08-05T17:03:15.450Z,38.64
2022-08-05T17:05:53.618Z,38.94
2022-08-05T17:08:33.640Z,38.78
2022-08-05T17:11:16.848Z,39.38
2022-08-05T17:13:47.180Z,39.66
2022-08-05T17:16:32.714Z,40.08
2022-08-05T17:19:02.194Z,40.39
2022-08-05T17:21:36.236Z,40.14
2022-08-05T17:24:19.368Z,40.51
2022-08-05T17:26:57.307Z,40.49
2022-08-05T17:29:33.302Z,40.89
2022-08-05T17:32:11.940Z,40.96
2022-08-05T17:34:47.522Z,40.91
2022-08-05T17:37:41.495Z,41.05
2022-08-05T17:40:12.460Z,41.41
2022-08-05T17:42:50.783Z,41.43
2022-08-05T17:45:22.081Z,41.57
2022-08-05T17:47:55.077Z,41.59
2022-08-05T17:50:28.517Z,42.11
2022-08-05T17:53:00.387Z,42.07
2022-08-05T17:55:34.214Z,42.25
2022-08-05T17:58:07.009Z,42.44
2022-08-05T18:00:40.874Z,42.46
2022-08-05T18:03:24.120Z,42.72
2022-08-05T18:06:05.333Z,42.93
2022-08-05T18:08:34.076Z,42.78
2022-08-05T18:11:03.440Z,42.93
2022-08-05T18:13:36.814Z,43.14
2022-08-05T18:16:13.820Z,43.32
2022-08-05T18:18:42.341Z,43.27
2022-08-05T18:21:21.314Z,43.53
2022-08-05T18:23:54.505Z,43.65
2022-08-05T18:26:29.155Z,43.80
2022-08-05T18:28:58.989Z,44.06
2022-08-05T18:31:33.080Z,44.10
2022-08-05T18:34:06.138Z,44.29
2022-08-05T18:36:37.911Z,44.30
2022-08-05T18:39:09.979Z,44.65
2022-08-05T18:42:02.180Z,44.74
2022-08-05T18:44:34.916Z,44.95
2022-08-05T18:47:04.969Z,45.27
2022-08-05T18:49:57.820Z,45.21
2022-08-05T18:52:36.451Z,45.34
2022-08-05T18:55:10.311Z,45.66
2022-08-05T18:57:43.316Z,46.01
2022-08-05T19:00:29.381Z,45.93
2022-08-05T19:03:03.796Z,46.15
2022-08-05T19:06:12.872Z,46.81
2022-08-05T19:08:31.368Z,47.04
2022-08-05T19:11:04.446Z,47.00
2022-08-05T19:13:40.138Z,47.59
2022-08-05T19:16:24.964Z,47.81
2022-08-05T19:18:57.775Z,48.06
2022-08-05T19:21:29.609Z,48.04
2022-08-05T19:24:08.921Z,47.78
2022-08-05T19:26:44.064Z,48.08
2022-08-05T19:29:24.185Z,47.95
2022-08-05T19:31:57.489Z,48.61
2022-08-05T19:34:29.628Z,48.90
2022-08-05T19:36:58.826Z,49.11
2022-08-05T19:39:29.466Z,49.37
2022-08-05T19:42:08.128Z,49.58
2022-08-05T19:44:45.012Z,50.00
2022-08-05T19:47:16.345Z,50.50
2022-08-05T19:49:46.051Z,50.93
2022-08-05T19:52:30.418Z,51.02
2022-08-05T19:56:15.272Z,51.62
2022-08-05T19:58:57.580Z,52.11
2022-08-05T20:01:45.951Z,52.13
2022-08-05T20:04:15.413Z,52.41
2022-08-05T20:06:46.547Z,52.66
2022-08-05T20:09:15.357Z,52.95
2022-08-05T20:11:54.362Z,53.49
2022-08-05T20:14:54.157Z,54.27
2022-08-05T20:18:33.133Z,54.12
2022-08-05T20:21:28.212Z,54.97
2022-08-05T20:35:04.482Z,55.50
2022-08-05T20:38:06.087Z,56.42
2022-08-05T20:41:43.485Z,57.13
2022-08-05T20:44:18.788Z,57.73
2022-08-05T20:46:58.061Z,58.28
2022-08-05T20:49:26.632Z,59.15
2022-08-05T20:51:57.503Z,59.64
2022-08-05T20:54:59.821Z,59.99
2022-08-05T20:57:41.803Z,60.18
2022-08-05T21:00:51.814Z,60.59
2022-08-05T21:07:15.336Z,62.17
2022-08-05T21:12:40.939Z,62.61
2022-08-05T21:16:09.182Z,63.18
2022-08-05T21:18:42.963Z,63.39
2022-08-05T21:21:14.362Z,63.78
2022-08-05T21:23:45.914Z,64.72
2022-08-05T21:26:26.392Z,65.09
2022-08-05T21:29:03.840Z,65.88
2022-08-05T21:35:55.393Z,66.58
2022-08-05T21:39:26.507Z,67.83
2022-08-05T21:52:38.926Z,67.69
2022-08-05T21:56:01.235Z,68.59
2022-08-05T21:58:13.336Z,68.83
2022-08-05T22:01:12.461Z,69.46
2022-08-05T22:03:58.494Z,69.88
2022-08-05T22:06:35.333Z,70.28
2022-08-05T22:09:13.657Z,70.55
2022-08-05T22:11:47.810Z,70.56
2022-08-05T22:17:59.846Z,70.83
2022-08-05T22:20:32.322Z,70.87
2022-08-05T22:23:25.470Z,72.08
2022-08-05T22:26:56.812Z,72.58
2022-08-05T22:29:30.705Z,72.73
2022-08-05T22:32:27.118Z,73.32
2022-08-05T22:34:59.126Z,74.70
2022-08-05T22:37:58.111Z,74.86
2022-08-05T22:40:23.919Z,75.07
2022-08-05T22:43:55.235Z,75.33
2022-08-05T22:47:30.055Z,75.92
2022-08-05T22:50:26.515Z,76.06
2022-08-05T22:52:59.136Z,76.54
2022-08-05T22:55:56.522Z,76.19
2022-08-05T22:58:28.261Z,76.47
2022-08-05T23:01:00.662Z,76.51
2022-08-05T23:03:58.034Z,76.49
2022-08-05T23:06:26.411Z,76.99
2022-08-05T23:09:27.122Z,77.03
2022-08-05T23:11:50.281Z,77.16
2022-08-05T23:14:32.021Z,76.88
2022-08-05T23:17:24.187Z,78.00
2022-08-05T23:20:06.002Z,78.59
2022-08-05T23:22:48.342Z,79.13
2022-08-05T23:25:52.961Z,78.98
2022-08-05T23:28:12.882Z,78.79
2022-08-05T23:30:53.069Z,78.93
2022-08-05T23:34:04.700Z,79.00
2022-08-05T23:36:18.034Z,79.18
2022-08-05T23:43:24.309Z,79.76
2022-08-05T23:45:57.715Z,79.59
2022-08-05T23:48:29.564Z,79.67
2022-08-05T23:51:01.330Z,79.57
2022-08-05T23:53:46.708Z,79.33
2022-08-05T23:56:50.856Z,79.53
2022-08-05T23:59:27.788Z,79.59
